createdAt,value
2023-05-22T00:01:44.204Z,99.90
2023-05-22T00:04:21.325Z,99.90
2023-05-22T00:06:50.639Z,99.90
2023-05-22T00:09:17.473Z,99.90
2023-05-22T00:11:51.270Z,99.90
2023-05-22T00:14:21.128Z,99.90
2023-05-22T00:16:51.821Z,99.90
2023-05-22T00:19:18.866Z,99.90
2023-05-22T00:21:49.019Z,99.90
2023-05-22T00:24:17.409Z,99.90
2023-05-22T00:26:45.203Z,99.90
2023-05-22T00:29:12.969Z,99.90
2023-05-22T00:31:39.744Z,99.90
2023-05-22T00:34:07.163Z,99.90
2023-05-22T00:36:34.029Z,99.90
2023-05-22T00:39:02.218Z,99.90
2023-05-22T00:41:29.022Z,99.90
2023-05-22T00:43:59.189Z,99.90
2023-05-22T00:46:26.444Z,99.90
2023-05-22T00:48:53.545Z,99.90
2023-05-22T00:51:22.075Z,99.90
2023-05-22T00:53:49.914Z,99.90
2023-05-22T00:56:17.876Z,99.90
2023-05-22T00:58:44.759Z,99.90
2023-05-22T01:01:12.262Z,99.90
2023-05-22T01:03:45.308Z,99.90
2023-05-22T01:06:14.519Z,99.90
2023-05-22T01:08:42.019Z,99.90
2023-05-22T01:11:33.529Z,99.90
2023-05-22T01:14:17.086Z,99.90
2023-05-22T01:17:05.495Z,99.90
2023-05-22T01:19:47.982Z,99.90
2023-05-22T01:22:43.928Z,99.90
2023-05-22T01:25:13.607Z,99.90
2023-05-22T01:27:58.975Z,99.90
2023-05-22T01:30:37.811Z,99.90
2023-05-22T01:33:08.930Z,99.90
2023-05-22T01:35:38.325Z,99.90
2023-05-22T01:38:08.145Z,99.90
2023-05-22T01:40:36.265Z,99.90
2023-05-22T01:43:03.426Z,99.90
2023-05-22T01:45:31.938Z,99.90
2023-05-22T01:48:00.263Z,99.90
2023-05-22T01:50:28.736Z,99.90
2023-05-22T01:53:13.309Z,99.90
2023-05-22T01:55:46.667Z,99.90
2023-05-22T01:58:39.664Z,99.90
2023-05-22T02:01:09.427Z,99.90
2023-05-22T02:03:37.609Z,99.90
2023-05-22T02:06:09.969Z,99.90
2023-05-22T02:08:39.680Z,99.90
2023-05-22T02:11:07.514Z,99.90
2023-05-22T02:13:35.444Z,99.90
2023-05-22T02:16:04.789Z,99.90
2023-05-22T02:18:34.599Z,99.90
2023-05-22T02:21:05.363Z,99.90
2023-05-22T02:23:32.500Z,99.90
2023-05-22T02:26:01.532Z,99.90
2023-05-22T02:28:28.374Z,99.90
2023-05-22T02:30:55.841Z,99.90
2023-05-22T02:33:22.675Z,99.90
2023-05-22T02:35:50.161Z,99.90
2023-05-22T02:38:17.143Z,99.90
2023-05-22T02:40:44.026Z,99.90
2023-05-22T02:43:10.863Z,99.90
2023-05-22T02:45:37.698Z,99.90
2023-05-22T02:48:04.930Z,99.90
2023-05-22T02:50:32.374Z,99.90
2023-05-22T02:52:59.139Z,99.90
2023-05-22T02:55:26.342Z,99.90
2023-05-22T02:57:56.388Z,99.90
2023-05-22T03:00:23.497Z,99.90
2023-05-22T03:02:50.821Z,99.90
2023-05-22T03:05:18.249Z,99.90
2023-05-22T03:07:48.320Z,99.90
2023-05-22T03:10:16.398Z,99.90
2023-05-22T03:12:44.679Z,99.90
2023-05-22T03:15:12.203Z,99.90
2023-05-22T03:17:39.998Z,99.90
2023-05-22T03:20:09.017Z,99.90
2023-05-22T03:22:36.625Z,99.90
2023-05-22T03:25:06.498Z,99.90
2023-05-22T03:27:33.721Z,99.90
2023-05-22T03:30:00.639Z,99.90
2023-05-22T03:32:29.756Z,99.90
2023-05-22T03:34:59.569Z,99.90
2023-05-22T03:37:27.179Z,99.90
2023-05-22T03:39:54.098Z,99.90
2023-05-22T03:42:25.723Z,99.90
2023-05-22T03:44:52.452Z,99.90
2023-05-22T03:47:21.107Z,99.90
2023-05-22T03:49:47.843Z,99.90
2023-05-22T03:52:17.557Z,99.90
2023-05-22T03:54:44.295Z,99.90
2023-05-22T03:57:11.235Z,99.90
2023-05-22T03:59:38.429Z,99.90
2023-05-22T04:02:05.949Z,99.90
2023-05-22T04:04:34.024Z,99.90
2023-05-22T04:07:03.103Z,99.90
2023-05-22T04:09:32.047Z,99.90
2023-05-22T04:11:59.100Z,99.90
2023-05-22T04:14:28.302Z,99.90
2023-05-22T04:16:56.316Z,99.90
2023-05-22T04:19:23.502Z,99.90
2023-05-22T04:21:50.671Z,99.90
2023-05-22T04:24:18.692Z,99.90
2023-05-22T04:26:47.327Z,99.90
2023-05-22T04:29:23.066Z,99.90
2023-05-22T04:31:56.776Z,99.90
2023-05-22T04:34:24.475Z,99.90
2023-05-22T04:36:55.570Z,99.90
2023-05-22T04:39:26.827Z,99.90
2023-05-22T04:41:56.545Z,99.90
2023-05-22T04:44:25.619Z,99.90
2023-05-22T04:46:53.199Z,99.90
2023-05-22T04:49:25.277Z,99.90
2023-05-22T04:51:54.417Z,99.90
2023-05-22T04:54:21.280Z,99.90
2023-05-22T04:56:49.742Z,99.90
2023-05-22T04:59:19.746Z,99.90
2023-05-22T05:04:36.162Z,99.90
2023-05-22T05:07:06.020Z,99.90
2023-05-22T05:09:34.862Z,99.90
2023-05-22T05:12:11.246Z,99.90
2023-05-22T05:14:41.756Z,99.90
2023-05-22T05:17:11.704Z,99.90
2023-05-22T05:19:45.229Z,99.90
2023-05-22T05:22:18.772Z,99.90
2023-05-22T05:24:54.777Z,99.90
2023-05-22T05:27:22.100Z,99.90
2023-05-22T05:29:53.692Z,99.90
2023-05-22T05:32:22.588Z,99.90
2023-05-22T05:34:53.121Z,99.90
2023-05-22T05:37:23.852Z,99.90
2023-05-22T05:40:12.432Z,99.90
2023-05-22T05:42:43.404Z,99.90
2023-05-22T05:45:11.497Z,99.90
2023-05-22T05:47:41.386Z,99.90
2023-05-22T05:50:11.935Z,99.90
2023-05-22T05:55:27.177Z,99.90
2023-05-22T05:57:54.899Z,99.90
2023-05-22T06:03:06.280Z,99.90
2023-05-22T06:05:42.149Z,99.90
2023-05-22T06:08:09.629Z,99.90
2023-05-22T06:10:49.805Z,99.90
2023-05-22T06:13:24.022Z,99.90
2023-05-22T06:15:51.126Z,99.90
2023-05-22T06:18:25.325Z,99.90
2023-05-22T06:20:55.344Z,99.90
2023-05-22T06:23:28.164Z,99.90
2023-05-22T06:26:00.451Z,99.90
2023-05-22T06:28:31.371Z,99.90
2023-05-22T06:31:02.315Z,99.90
2023-05-22T06:33:33.985Z,99.90
2023-05-22T06:36:15.503Z,99.90
2023-05-22T06:38:50.052Z,99.90
2023-05-22T06:41:28.661Z,99.90
2023-05-22T06:43:55.780Z,99.90
2023-05-22T06:46:26.294Z,99.90
2023-05-22T06:48:55.460Z,99.90
2023-05-22T06:51:35.576Z,99.90
2023-05-22T06:54:07.425Z,99.90
2023-05-22T06:56:35.938Z,99.90
2023-05-22T06:59:07.402Z,99.90
2023-05-22T07:01:35.169Z,99.90
2023-05-22T07:04:06.309Z,99.90
2023-05-22T07:06:34.893Z,99.90
2023-05-22T07:09:03.774Z,99.90
2023-05-22T07:11:31.093Z,99.90
2023-05-22T07:14:04.884Z,99.90
2023-05-22T07:16:32.198Z,99.90
2023-05-22T07:19:02.825Z,99.90
2023-05-22T07:21:32.613Z,96.10
2023-05-22T07:24:00.185Z,95.80
2023-05-22T07:26:34.327Z,89.00
2023-05-22T07:29:02.246Z,83.80
2023-05-22T07:31:38.523Z,78.10
2023-05-22T07:36:52.702Z,75.90
2023-05-22T07:39:19.668Z,77.10
2023-05-22T07:41:51.642Z,71.80
2023-05-22T07:44:34.869Z,67.50
2023-05-22T07:47:04.827Z,65.30
2023-05-22T07:49:32.863Z,65.20
2023-05-22T07:52:02.189Z,63.90
2023-05-22T07:54:31.645Z,64.60
2023-05-22T07:56:59.415Z,59.80
2023-05-22T07:59:35.809Z,66.00
2023-05-22T08:04:52.706Z,59.50
2023-05-22T08:07:19.886Z,58.10
2023-05-22T08:09:55.699Z,57.30
2023-05-22T08:12:23.543Z,59.90
2023-05-22T08:14:59.837Z,64.20
2023-05-22T08:17:28.225Z,66.00
2023-05-22T08:19:57.567Z,64.00
2023-05-22T08:22:26.257Z,59.80
2023-05-22T08:24:57.828Z,56.50
2023-05-22T08:27:25.434Z,57.20
2023-05-22T08:29:52.794Z,56.00
2023-05-22T08:32:23.248Z,57.50
2023-05-22T08:34:51.970Z,55.80
2023-05-22T08:37:18.983Z,55.80
2023-05-22T08:40:11.163Z,56.00
2023-05-22T08:42:44.728Z,56.30
2023-05-22T08:45:16.442Z,56.30
2023-05-22T08:47:46.278Z,53.00
2023-05-22T08:50:13.633Z,51.20
2023-05-22T08:52:53.881Z,49.60
2023-05-22T08:55:27.637Z,49.30
2023-05-22T08:57:57.344Z,49.90
2023-05-22T09:00:25.922Z,49.80
2023-05-22T09:02:56.275Z,48.20
2023-05-22T09:05:29.924Z,46.30
2023-05-22T09:08:08.451Z,47.40
2023-05-22T09:10:48.018Z,47.60
2023-05-22T09:13:36.557Z,49.20
2023-05-22T09:16:12.309Z,49.70
2023-05-22T09:18:41.805Z,51.40
2023-05-22T09:21:25.803Z,53.40
2023-05-22T09:24:02.449Z,54.30
2023-05-22T09:26:30.000Z,53.60
2023-05-22T09:29:01.863Z,53.00
2023-05-22T09:31:38.987Z,53.70
2023-05-22T09:34:10.862Z,56.40
2023-05-22T09:36:39.261Z,58.20
2023-05-22T09:39:14.304Z,55.80
2023-05-22T09:41:41.102Z,54.80
2023-05-22T09:46:58.476Z,56.40
2023-05-22T09:49:28.336Z,55.90
2023-05-22T09:51:59.274Z,55.70
2023-05-22T09:54:34.641Z,54.70
2023-05-22T09:57:04.944Z,55.50
2023-05-22T09:59:38.109Z,56.20
2023-05-22T10:02:12.751Z,56.60
2023-05-22T10:04:42.840Z,56.80
2023-05-22T10:07:13.556Z,56.60
2023-05-22T10:09:44.389Z,56.70
2023-05-22T10:12:20.218Z,56.20
2023-05-22T10:14:48.731Z,56.20
2023-05-22T10:17:21.616Z,54.80
2023-05-22T10:19:51.634Z,54.00
2023-05-22T10:22:21.336Z,54.60
2023-05-22T10:24:48.775Z,54.70
2023-05-22T10:27:16.794Z,54.70
2023-05-22T10:29:56.644Z,55.60
2023-05-22T10:32:40.656Z,56.50
2023-05-22T10:35:46.388Z,56.90
2023-05-22T10:38:47.580Z,58.90
2023-05-22T10:41:15.431Z,59.40
2023-05-22T10:43:45.822Z,59.50
2023-05-22T10:46:16.734Z,59.80
2023-05-22T10:48:49.863Z,61.00
2023-05-22T10:51:30.249Z,61.60
2023-05-22T10:54:13.548Z,62.40
2023-05-22T10:56:43.760Z,62.60
2023-05-22T10:59:12.937Z,62.90
2023-05-22T11:01:43.760Z,63.20
2023-05-22T11:04:14.477Z,63.10
2023-05-22T11:07:02.468Z,64.20
2023-05-22T11:09:49.179Z,65.80
2023-05-22T11:12:54.685Z,66.60
2023-05-22T11:15:33.310Z,66.20
2023-05-22T11:18:05.015Z,67.40
2023-05-22T11:20:40.104Z,69.00
2023-05-22T11:23:08.961Z,70.30
2023-05-22T11:25:38.901Z,70.70
2023-05-22T11:28:14.597Z,68.70
2023-05-22T11:30:46.076Z,67.80
2023-05-22T11:33:13.984Z,69.30
2023-05-22T11:35:47.364Z,66.70
2023-05-22T11:38:15.512Z,69.40
2023-05-22T11:40:44.102Z,70.50
2023-05-22T11:43:17.426Z,69.40
2023-05-22T11:45:45.013Z,68.80
2023-05-22T11:48:45.457Z,67.80
2023-05-22T11:51:22.112Z,66.50
2023-05-22T11:53:59.383Z,66.90
2023-05-22T11:56:28.748Z,67.20
2023-05-22T11:58:57.064Z,68.20
2023-05-22T12:01:30.442Z,68.80
2023-05-22T12:04:05.580Z,68.90
2023-05-22T12:06:43.347Z,67.00
2023-05-22T12:09:13.426Z,68.30
2023-05-22T12:11:50.147Z,69.60
2023-05-22T12:14:19.287Z,70.50
2023-05-22T12:16:52.073Z,71.30
2023-05-22T12:19:22.094Z,72.30
2023-05-22T12:21:56.259Z,71.40
2023-05-22T12:24:24.374Z,71.80
2023-05-22T12:26:56.152Z,70.40
2023-05-22T12:29:25.574Z,68.70
2023-05-22T12:31:56.062Z,70.60
2023-05-22T12:34:24.394Z,71.60
2023-05-22T12:36:59.517Z,72.20
2023-05-22T12:39:28.846Z,71.00
2023-05-22T12:44:46.423Z,71.50
2023-05-22T12:47:14.537Z,71.90
2023-05-22T12:49:46.139Z,71.10
2023-05-22T12:54:54.430Z,72.00
2023-05-22T12:57:25.393Z,69.80
2023-05-22T13:00:09.628Z,68.70
2023-05-22T13:02:47.348Z,67.70
2023-05-22T13:05:14.952Z,67.50
2023-05-22T13:10:31.058Z,67.50
2023-05-22T13:13:02.616Z,67.70
2023-05-22T13:15:31.189Z,68.20
2023-05-22T13:18:04.596Z,69.20
2023-05-22T13:20:43.910Z,69.70
2023-05-22T13:23:16.290Z,67.60
2023-05-22T13:25:44.085Z,67.90
2023-05-22T13:28:16.432Z,67.70
2023-05-22T13:30:50.986Z,67.90
2023-05-22T13:33:21.649Z,68.10
2023-05-22T13:41:11.674Z,66.10
2023-05-22T13:43:42.863Z,67.50
2023-05-22T13:46:16.642Z,69.40
2023-05-22T13:48:44.410Z,69.30
2023-05-22T13:51:12.046Z,70.20
2023-05-22T13:53:40.978Z,69.70
2023-05-22T13:56:14.716Z,67.30
2023-05-22T13:58:45.294Z,67.00
2023-05-22T14:01:15.543Z,65.20
2023-05-22T14:06:29.364Z,66.20
2023-05-22T14:09:00.948Z,68.70
2023-05-22T14:11:31.637Z,67.10
2023-05-22T14:14:01.756Z,66.10
2023-05-22T14:16:37.434Z,67.10
2023-05-22T14:19:26.195Z,66.80
2023-05-22T14:21:55.427Z,67.20
2023-05-22T14:24:23.507Z,66.80
2023-05-22T14:27:01.935Z,67.90
2023-05-22T14:29:32.026Z,68.40
2023-05-22T14:32:05.405Z,70.50
2023-05-22T14:34:39.281Z,69.40
2023-05-22T14:37:24.829Z,69.60
2023-05-22T14:39:58.827Z,69.30
2023-05-22T14:42:28.022Z,70.40
2023-05-22T14:44:56.488Z,71.50
2023-05-22T14:47:25.078Z,71.90
2023-05-22T14:50:17.634Z,71.50
2023-05-22T14:52:48.477Z,69.90
2023-05-22T14:55:19.008Z,70.00
2023-05-22T14:57:52.899Z,69.70
2023-05-22T15:00:21.981Z,70.50
2023-05-22T15:03:02.020Z,70.80
2023-05-22T15:05:35.830Z,70.40
2023-05-22T15:08:04.244Z,71.90
2023-05-22T15:10:31.069Z,71.10
2023-05-22T15:12:58.287Z,72.10
2023-05-22T15:15:26.817Z,71.30
2023-05-22T15:17:53.966Z,70.80
2023-05-22T15:20:21.238Z,71.10
2023-05-22T15:22:48.591Z,71.90
2023-05-22T15:25:17.103Z,71.60
2023-05-22T15:27:50.930Z,72.40
2023-05-22T15:30:19.096Z,71.20
2023-05-22T15:32:47.725Z,71.30
2023-05-22T15:35:14.875Z,71.60
2023-05-22T15:37:49.215Z,71.40
2023-05-22T15:40:19.418Z,71.10
2023-05-22T15:42:47.571Z,72.70
2023-05-22T15:45:34.925Z,72.10
2023-05-22T15:48:04.911Z,71.60
2023-05-22T15:50:34.678Z,72.50
2023-05-22T15:53:02.058Z,72.10
2023-05-22T15:55:31.287Z,72.50
2023-05-22T15:58:01.015Z,73.80
2023-05-22T16:00:29.730Z,71.20
2023-05-22T16:03:04.681Z,70.90
2023-05-22T16:05:36.467Z,70.70
2023-05-22T16:08:03.924Z,72.10
2023-05-22T16:10:35.982Z,70.30
2023-05-22T16:13:05.739Z,71.70
2023-05-22T16:15:37.194Z,71.30
2023-05-22T16:18:08.313Z,70.80
2023-05-22T16:20:37.536Z,72.00
2023-05-22T16:23:09.805Z,71.80
2023-05-22T16:25:37.366Z,72.20
2023-05-22T16:28:05.629Z,71.80
2023-05-22T16:30:32.725Z,73.20
2023-05-22T16:38:42.604Z,73.20
2023-05-22T16:41:30.118Z,72.80
2023-05-22T16:46:36.510Z,73.90
2023-05-22T16:49:11.827Z,74.10
2023-05-22T16:51:53.438Z,75.70
2023-05-22T16:54:25.530Z,76.80
2023-05-22T16:57:08.612Z,78.10
2023-05-22T16:59:51.748Z,77.80
2023-05-22T17:05:13.359Z,80.50
2023-05-22T17:08:04.221Z,81.70
2023-05-22T17:10:44.773Z,81.90
2023-05-22T17:13:32.109Z,83.00
2023-05-22T17:16:17.508Z,84.80
2023-05-22T17:18:44.933Z,86.10
2023-05-22T17:21:28.997Z,86.80
2023-05-22T17:29:36.718Z,89.20
2023-05-22T17:32:08.084Z,90.30
2023-05-22T17:37:18.774Z,91.40
2023-05-22T17:39:51.859Z,92.30
2023-05-22T17:42:19.302Z,92.60
2023-05-22T17:44:49.615Z,93.20
2023-05-22T17:47:25.010Z,93.50
2023-05-22T17:50:14.119Z,93.90
2023-05-22T17:53:05.565Z,95.00
2023-05-22T17:58:17.666Z,95.70
2023-05-22T18:00:54.649Z,95.70
2023-05-22T18:06:04.137Z,96.90
2023-05-22T18:08:35.345Z,97.50
2023-05-22T18:11:03.114Z,97.30
2023-05-22T18:16:23.695Z,98.90
2023-05-22T18:18:54.056Z,99.20
2023-05-22T18:21:38.273Z,99.90
2023-05-22T18:24:06.700Z,99.90
2023-05-22T18:26:35.895Z,99.90
2023-05-22T18:29:08.471Z,99.90
2023-05-22T18:32:11.275Z,99.90
2023-05-22T18:34:46.642Z,99.90
2023-05-22T18:37:18.757Z,99.90
2023-05-22T18:40:02.468Z,99.90
2023-05-22T18:42:37.395Z,99.90
2023-05-22T18:45:08.385Z,99.90
2023-05-22T18:47:41.320Z,99.90
2023-05-22T18:52:53.837Z,99.90
2023-05-22T18:55:23.172Z,99.90
2023-05-22T19:00:39.668Z,99.90
2023-05-22T19:03:31.021Z,99.90
2023-05-22T19:11:43.729Z,99.90
2023-05-22T19:19:43.189Z,99.90
2023-05-22T19:22:34.303Z,99.90
2023-05-22T19:25:03.548Z,99.90
2023-05-22T19:27:34.525Z,99.90
2023-05-22T19:30:10.249Z,99.90
2023-05-22T19:32:37.914Z,99.90
2023-05-22T19:35:08.487Z,99.90
2023-05-22T19:37:36.156Z,99.90
2023-05-22T19:40:07.404Z,99.90
2023-05-22T19:42:38.282Z,99.90
2023-05-22T19:45:13.875Z,99.90
2023-05-22T19:47:44.291Z,99.90
2023-05-22T19:50:14.161Z,99.90
2023-05-22T19:52:41.775Z,99.90
2023-05-22T19:55:09.893Z,99.90
2023-05-22T19:57:37.830Z,99.90
2023-05-22T20:00:11.337Z,99.90
2023-05-22T20:02:44.481Z,99.90
2023-05-22T20:05:25.446Z,99.90
2023-05-22T20:07:52.821Z,99.90
2023-05-22T20:10:26.547Z,99.90
2023-05-22T20:12:57.447Z,99.90
2023-05-22T20:15:25.201Z,99.90
2023-05-22T20:17:55.066Z,99.90
2023-05-22T20:20:25.683Z,99.90
2023-05-22T20:22:54.489Z,99.90
2023-05-22T20:25:23.718Z,99.90
2023-05-22T20:27:52.472Z,99.90
2023-05-22T20:30:23.346Z,99.90
2023-05-22T20:32:52.715Z,99.90
2023-05-22T20:35:22.587Z,99.90
2023-05-22T20:37:53.790Z,99.90
2023-05-22T20:40:28.379Z,99.90
2023-05-22T20:42:58.170Z,99.90
2023-05-22T20:45:28.437Z,99.90
2023-05-22T20:47:57.925Z,99.90
2023-05-22T20:50:28.073Z,99.90
2023-05-22T20:53:01.987Z,99.90
2023-05-22T20:55:29.618Z,99.90
2023-05-22T20:57:57.582Z,99.90
2023-05-22T21:00:24.427Z,99.90
2023-05-22T21:02:57.526Z,99.90
2023-05-22T21:05:26.272Z,99.90
2023-05-22T21:07:56.210Z,99.90
2023-05-22T21:10:29.124Z,99.90
2023-05-22T21:12:58.082Z,99.90
2023-05-22T21:15:27.887Z,99.90
2023-05-22T21:17:54.769Z,99.90
2023-05-22T21:20:26.917Z,99.90
2023-05-22T21:22:54.863Z,99.90
2023-05-22T21:25:26.746Z,99.90
2023-05-22T21:27:58.326Z,99.90
2023-05-22T21:30:26.020Z,99.90
2023-05-22T21:32:52.895Z,99.90
2023-05-22T21:35:24.824Z,99.90
2023-05-22T21:37:54.764Z,99.90
2023-05-22T21:40:22.102Z,99.90
2023-05-22T21:42:51.661Z,99.90
2023-05-22T21:45:18.845Z,99.90
2023-05-22T21:47:46.097Z,99.90
2023-05-22T21:50:16.207Z,99.90
2023-05-22T21:52:44.921Z,99.90
2023-05-22T21:55:14.945Z,99.90
2023-05-22T21:57:42.513Z,99.90
2023-05-22T22:00:12.481Z,99.90
2023-05-22T22:02:44.359Z,99.90
2023-05-22T22:05:14.683Z,99.90
2023-05-22T22:07:46.593Z,99.90
2023-05-22T22:10:13.757Z,99.90
2023-05-22T22:12:41.722Z,99.90
2023-05-22T22:15:12.832Z,99.90
2023-05-22T22:17:40.988Z,99.90
2023-05-22T22:20:09.794Z,99.90
2023-05-22T22:22:44.033Z,99.90
2023-05-22T22:25:12.987Z,99.90
2023-05-22T22:27:40.387Z,99.90
2023-05-22T22:30:12.881Z,99.90
2023-05-22T22:32:39.748Z,99.90
2023-05-22T22:35:07.431Z,99.90
2023-05-22T22:37:36.392Z,99.90
2023-05-22T22:40:06.342Z,99.90
2023-05-22T22:42:43.904Z,99.90
2023-05-22T22:45:14.827Z,99.90
2023-05-22T22:47:42.201Z,99.90
2023-05-22T22:50:13.619Z,99.90
2023-05-22T22:52:55.191Z,99.90
2023-05-22T22:55:27.421Z,99.90
2023-05-22T22:57:58.643Z,99.90
2023-05-22T23:00:27.803Z,99.90
2023-05-22T23:02:58.971Z,99.90
2023-05-22T23:05:28.375Z,99.90
2023-05-22T23:07:55.634Z,99.90
2023-05-22T23:10:24.980Z,99.90
2023-05-22T23:12:52.669Z,99.90
2023-05-22T23:15:21.644Z,99.90
2023-05-22T23:17:51.858Z,99.90
2023-05-22T23:20:19.384Z,99.90
2023-05-22T23:22:46.622Z,99.90
2023-05-22T23:25:14.045Z,99.90
2023-05-22T23:27:42.453Z,99.90
2023-05-22T23:30:12.549Z,99.90
2023-05-22T23:32:42.611Z,99.90
2023-05-22T23:35:13.864Z,99.90
2023-05-22T23:37:41.953Z,99.90
2023-05-22T23:40:10.872Z,99.90
2023-05-22T23:42:39.151Z,99.90
2023-05-22T23:45:06.383Z,99.90
2023-05-22T23:47:33.597Z,99.90
2023-05-22T23:50:00.566Z,99.90
2023-05-22T23:52:28.773Z,99.90
2023-05-22T23:54:57.979Z,99.90
2023-05-22T23:57:31.837Z,99.90
2023-05-22T23:59:59.209Z,99.90
